WMT3DY LATI-LIRF
Flight info
| Callsign | WMT3DY |
|---|---|
| Flight time | 1h 17m |
| Altitude | 36000 |
| Route | DIRES DCT PAPIZ DCT KAPPO DCT ROBOT DCT LUXIL DCT TOPNO DCT EKTOL DCT IPKAM DCT TEA DCT SIPRO DCT LAT |
| Aircraft | A321/M-SDE1E2E3FGIJ1J4RWXY/LB1 |
Departure
| Time | 2026-05-05 12:50 |
|---|---|
| Airport | Tirana International Airport Mother Teresa (LATI) |
Arrival
| Time | 2026-05-05 14:07 |
|---|---|
| Airport | Rome–Fiumicino Leonardo da Vinci International Airport (LIRF) |
| Time | Latitude | Longitude | Altitude | Speed | Heading |
|---|---|---|---|---|---|
| 2026-05-05 12:22 | 41.42065 | 19.71499 | 118 ft | 0 kts | 264° |
| 2026-05-05 12:36 | 41.42066 | 19.71503 | 117 ft | 3 kts | 264° |
| 2026-05-05 12:37 | 41.42068 | 19.71534 | 119 ft | 4 kts | 255° |
| 2026-05-05 12:37 | 41.42080 | 19.71559 | 118 ft | 4 kts | 193° |
| 2026-05-05 12:37 | 41.42102 | 19.71560 | 119 ft | 1 kts | 174° |
| 2026-05-05 12:37 | 41.42106 | 19.71559 | 119 ft | 0 kts | 174° |
| 2026-05-05 12:40 | 41.42103 | 19.71560 | 118 ft | 1 kts | 174° |
| 2026-05-05 12:41 | 41.42093 | 19.71561 | 120 ft | 2 kts | 174° |
| 2026-05-05 12:41 | 41.42076 | 19.71563 | 121 ft | 3 kts | 174° |
| 2026-05-05 12:41 | 41.42052 | 19.71566 | 120 ft | 4 kts | 174° |
| 2026-05-05 12:41 | 41.42023 | 19.71570 | 118 ft | 5 kts | 174° |
| 2026-05-05 12:42 | 41.41990 | 19.71575 | 122 ft | 5 kts | 174° |
| 2026-05-05 12:42 | 41.41951 | 19.71580 | 121 ft | 6 kts | 174° |
| 2026-05-05 12:42 | 41.41908 | 19.71586 | 123 ft | 7 kts | 174° |
| 2026-05-05 12:42 | 41.41861 | 19.71592 | 123 ft | 7 kts | 174° |
| 2026-05-05 12:43 | 41.41810 | 19.71599 | 120 ft | 8 kts | 174° |
| 2026-05-05 12:43 | 41.41757 | 19.71607 | 121 ft | 8 kts | 174° |
| 2026-05-05 12:43 | 41.41699 | 19.71614 | 125 ft | 9 kts | 174° |
| 2026-05-05 12:43 | 41.41638 | 19.71622 | 126 ft | 9 kts | 174° |
| 2026-05-05 12:44 | 41.41574 | 19.71631 | 125 ft | 10 kts | 174° |
| 2026-05-05 12:44 | 41.41505 | 19.71640 | 123 ft | 10 kts | 174° |
| 2026-05-05 12:44 | 41.41434 | 19.71649 | 127 ft | 11 kts | 174° |
| 2026-05-05 12:44 | 41.41359 | 19.71659 | 126 ft | 11 kts | 174° |
| 2026-05-05 12:45 | 41.41280 | 19.71670 | 124 ft | 12 kts | 174° |
| 2026-05-05 12:45 | 41.41197 | 19.71681 | 125 ft | 12 kts | 174° |
| 2026-05-05 12:45 | 41.41111 | 19.71693 | 125 ft | 13 kts | 174° |
| 2026-05-05 12:45 | 41.41020 | 19.71705 | 128 ft | 13 kts | 174° |
| 2026-05-05 12:46 | 41.40925 | 19.71720 | 130 ft | 14 kts | 171° |
| 2026-05-05 12:46 | 41.40825 | 19.71745 | 131 ft | 15 kts | 169° |
| 2026-05-05 12:46 | 41.40720 | 19.71764 | 132 ft | 16 kts | 174° |
| 2026-05-05 12:46 | 41.40609 | 19.71779 | 132 ft | 16 kts | 174° |
| 2026-05-05 12:47 | 41.40492 | 19.71794 | 132 ft | 17 kts | 174° |
| 2026-05-05 12:47 | 41.40403 | 19.71815 | 132 ft | 9 kts | 155° |
| 2026-05-05 12:47 | 41.40351 | 19.71861 | 133 ft | 9 kts | 144° |
| 2026-05-05 12:47 | 41.40296 | 19.71915 | 133 ft | 10 kts | 143° |
| 2026-05-05 12:48 | 41.40244 | 19.71983 | 133 ft | 11 kts | 116° |
| 2026-05-05 12:48 | 41.40243 | 19.72086 | 133 ft | 12 kts | 83° |
| 2026-05-05 12:48 | 41.40246 | 19.72135 | 133 ft | 0 kts | 84° |
| 2026-05-05 12:48 | 41.40248 | 19.72153 | 133 ft | 4 kts | 84° |
| 2026-05-05 12:49 | 41.40256 | 19.72199 | 132 ft | 6 kts | 61° |
| 2026-05-05 12:49 | 41.40296 | 19.72215 | 132 ft | 7 kts | 359° |
| 2026-05-05 12:49 | 41.40356 | 19.72207 | 132 ft | 14 kts | 353° |
| 2026-05-05 12:49 | 41.40701 | 19.72160 | 135 ft | 86 kts | 354° |
| 2026-05-05 12:50 | 41.41510 | 19.72051 | 126 ft | 145 kts | 354° |
| 2026-05-05 12:50 | 41.42606 | 19.71906 | 505 ft | 160 kts | 351° |
| 2026-05-05 12:50 | 41.43716 | 19.71751 | 1228 ft | 161 kts | 349° |
| 2026-05-05 12:50 | 41.44879 | 19.71574 | 1664 ft | 177 kts | 351° |
| 2026-05-05 12:51 | 41.46191 | 19.71387 | 1917 ft | 202 kts | 352° |
| 2026-05-05 12:51 | 41.47657 | 19.71189 | 2224 ft | 222 kts | 353° |
| 2026-05-05 12:51 | 41.49283 | 19.70970 | 2402 ft | 250 kts | 352° |
| 2026-05-05 12:51 | 41.51068 | 19.70733 | 2885 ft | 265 kts | 354° |
| 2026-05-05 12:52 | 41.52919 | 19.70490 | 3688 ft | 270 kts | 353° |
| 2026-05-05 12:52 | 41.54802 | 19.70245 | 4496 ft | 274 kts | 354° |
| 2026-05-05 12:52 | 41.56708 | 19.70013 | 5295 ft | 276 kts | 354° |
| 2026-05-05 12:52 | 41.58635 | 19.69766 | 6099 ft | 280 kts | 353° |
| 2026-05-05 12:53 | 41.60577 | 19.69473 | 6930 ft | 281 kts | 347° |
| 2026-05-05 12:53 | 41.62335 | 19.68379 | 7652 ft | 282 kts | 319° |
| 2026-05-05 12:53 | 41.63556 | 19.66360 | 8431 ft | 281 kts | 295° |
| 2026-05-05 12:53 | 41.64070 | 19.63854 | 9208 ft | 282 kts | 272° |
| 2026-05-05 12:54 | 41.62720 | 19.59013 | 10482 ft | 297 kts | 225° |
| 2026-05-05 12:54 | 41.60918 | 19.57503 | 10657 ft | 321 kts | 198° |
| 2026-05-05 12:54 | 41.58645 | 19.57257 | 11009 ft | 337 kts | 176° |
| 2026-05-05 12:55 | 41.56285 | 19.57554 | 11614 ft | 343 kts | 175° |
| 2026-05-05 12:55 | 41.53897 | 19.57860 | 12298 ft | 347 kts | 175° |
| 2026-05-05 12:55 | 41.51483 | 19.58169 | 12972 ft | 351 kts | 175° |
| 2026-05-05 12:55 | 41.49042 | 19.58478 | 13643 ft | 354 kts | 175° |
| 2026-05-05 12:56 | 41.46573 | 19.58784 | 14266 ft | 358 kts | 175° |
| 2026-05-05 12:56 | 41.44070 | 19.59087 | 14822 ft | 363 kts | 176° |
| 2026-05-05 12:56 | 41.41539 | 19.59392 | 15406 ft | 368 kts | 176° |
| 2026-05-05 12:56 | 41.38982 | 19.59699 | 16052 ft | 371 kts | 176° |
| 2026-05-05 12:57 | 41.36397 | 19.60008 | 16658 ft | 375 kts | 176° |
| 2026-05-05 12:57 | 41.33784 | 19.60317 | 17281 ft | 379 kts | 178° |
| 2026-05-05 12:57 | 41.31151 | 19.60164 | 17867 ft | 380 kts | 192° |
| 2026-05-05 12:57 | 41.28615 | 19.59172 | 18426 ft | 381 kts | 206° |
| 2026-05-05 12:58 | 41.26332 | 19.57394 | 18939 ft | 381 kts | 220° |
| 2026-05-05 12:58 | 41.24437 | 19.54945 | 19480 ft | 381 kts | 234° |
| 2026-05-05 12:58 | 41.22909 | 19.52069 | 20017 ft | 382 kts | 238° |
| 2026-05-05 12:58 | 41.21399 | 19.49147 | 20571 ft | 385 kts | 238° |
| 2026-05-05 12:59 | 41.19871 | 19.46207 | 21092 ft | 388 kts | 238° |
| 2026-05-05 12:59 | 41.18855 | 19.44257 | 21466 ft | 389 kts | 238° |
| 2026-05-05 12:59 | 41.17312 | 19.41300 | 22047 ft | 390 kts | 238° |
| 2026-05-05 13:00 | 41.14208 | 19.35357 | 23083 ft | 394 kts | 238° |
| 2026-05-05 13:00 | 41.12641 | 19.32364 | 23561 ft | 396 kts | 238° |
| 2026-05-05 13:01 | 41.07896 | 19.23297 | 24752 ft | 402 kts | 239° |
| 2026-05-05 13:01 | 41.06298 | 19.20250 | 25128 ft | 404 kts | 238° |
| 2026-05-05 13:01 | 41.04495 | 19.17367 | 25494 ft | 409 kts | 231° |
| 2026-05-05 13:01 | 41.02576 | 19.14579 | 25861 ft | 410 kts | 231° |
| 2026-05-05 13:02 | 41.00645 | 19.11783 | 26228 ft | 412 kts | 232° |
| 2026-05-05 13:02 | 40.98710 | 19.08981 | 26607 ft | 413 kts | 232° |
| 2026-05-05 13:02 | 40.96769 | 19.06169 | 26966 ft | 415 kts | 232° |
| 2026-05-05 13:02 | 40.94818 | 19.03345 | 27312 ft | 417 kts | 232° |
| 2026-05-05 13:03 | 40.92858 | 19.00511 | 27664 ft | 418 kts | 232° |
| 2026-05-05 13:03 | 40.90902 | 18.97657 | 27999 ft | 419 kts | 235° |
| 2026-05-05 13:03 | 40.89223 | 18.94543 | 28327 ft | 414 kts | 244° |
| 2026-05-05 13:03 | 40.87976 | 18.91128 | 28661 ft | 411 kts | 253° |
| 2026-05-05 13:04 | 40.86963 | 18.87596 | 28987 ft | 412 kts | 253° |
| 2026-05-05 13:04 | 40.85939 | 18.84049 | 29311 ft | 414 kts | 253° |
| 2026-05-05 13:04 | 40.84903 | 18.80498 | 29641 ft | 416 kts | 253° |
| 2026-05-05 13:04 | 40.83857 | 18.76934 | 29977 ft | 416 kts | 253° |
| 2026-05-05 13:05 | 40.82806 | 18.73365 | 30314 ft | 417 kts | 253° |
| 2026-05-05 13:05 | 40.81754 | 18.69799 | 30636 ft | 417 kts | 253° |
| 2026-05-05 13:05 | 40.80701 | 18.66228 | 30964 ft | 418 kts | 254° |
| 2026-05-05 13:05 | 40.79653 | 18.62654 | 31291 ft | 418 kts | 254° |
| 2026-05-05 13:06 | 40.78607 | 18.59080 | 31665 ft | 416 kts | 254° |
| 2026-05-05 13:06 | 40.77565 | 18.55536 | 32124 ft | 413 kts | 254° |
| 2026-05-05 13:06 | 40.76526 | 18.52021 | 32593 ft | 409 kts | 255° |
| 2026-05-05 13:06 | 40.75492 | 18.48543 | 33061 ft | 406 kts | 255° |
| 2026-05-05 13:07 | 40.74463 | 18.45095 | 33514 ft | 402 kts | 255° |
| 2026-05-05 13:07 | 40.73445 | 18.41681 | 33974 ft | 399 kts | 255° |
| 2026-05-05 13:07 | 40.72438 | 18.38291 | 34379 ft | 396 kts | 255° |
| 2026-05-05 13:07 | 40.71455 | 18.34964 | 34685 ft | 395 kts | 255° |
| 2026-05-05 13:08 | 40.70458 | 18.31583 | 34848 ft | 397 kts | 254° |
| 2026-05-05 13:08 | 40.70028 | 18.30131 | 34900 ft | 399 kts | 254° |
| 2026-05-05 13:08 | 40.69013 | 18.26717 | 35051 ft | 402 kts | 254° |
| 2026-05-05 13:08 | 40.67986 | 18.23281 | 35258 ft | 404 kts | 254° |
| 2026-05-05 13:09 | 40.66956 | 18.19838 | 35491 ft | 404 kts | 254° |
| 2026-05-05 13:09 | 40.65925 | 18.16391 | 35737 ft | 405 kts | 253° |
| 2026-05-05 13:09 | 40.64887 | 18.12939 | 35959 ft | 406 kts | 253° |
| 2026-05-05 13:09 | 40.63845 | 18.09474 | 36069 ft | 407 kts | 253° |
| 2026-05-05 13:10 | 40.62056 | 18.02467 | 36084 ft | 400 kts | 265° |
| 2026-05-05 13:10 | 40.62047 | 17.95276 | 36084 ft | 392 kts | 283° |
| 2026-05-05 13:11 | 40.63337 | 17.88315 | 36084 ft | 391 kts | 285° |
| 2026-05-05 13:11 | 40.64633 | 17.81351 | 36084 ft | 392 kts | 285° |
| 2026-05-05 13:12 | 40.65920 | 17.74384 | 36081 ft | 392 kts | 285° |
| 2026-05-05 13:12 | 40.67215 | 17.67405 | 36084 ft | 393 kts | 285° |
| 2026-05-05 13:13 | 40.68502 | 17.60407 | 36089 ft | 393 kts | 285° |
| 2026-05-05 13:13 | 40.69792 | 17.53396 | 36100 ft | 394 kts | 285° |
| 2026-05-05 13:14 | 40.71081 | 17.46379 | 36106 ft | 394 kts | 285° |
| 2026-05-05 13:14 | 40.72372 | 17.39360 | 36097 ft | 394 kts | 284° |
| 2026-05-05 13:15 | 40.73664 | 17.32375 | 36100 ft | 395 kts | 284° |
| 2026-05-05 13:15 | 40.74963 | 17.25338 | 36097 ft | 395 kts | 284° |
| 2026-05-05 13:16 | 40.76260 | 17.18290 | 36107 ft | 396 kts | 284° |
| 2026-05-05 13:16 | 40.77550 | 17.11233 | 36119 ft | 396 kts | 284° |
| 2026-05-05 13:17 | 40.78828 | 17.04167 | 36092 ft | 396 kts | 284° |
| 2026-05-05 13:17 | 40.80105 | 16.97098 | 36091 ft | 396 kts | 284° |
| 2026-05-05 13:18 | 40.81385 | 16.90030 | 36087 ft | 396 kts | 284° |
| 2026-05-05 13:18 | 40.82653 | 16.82962 | 36084 ft | 396 kts | 284° |
| 2026-05-05 13:19 | 40.83906 | 16.75887 | 36078 ft | 396 kts | 284° |
| 2026-05-05 13:19 | 40.85148 | 16.68810 | 36079 ft | 396 kts | 283° |
| 2026-05-05 13:20 | 40.86383 | 16.61729 | 36075 ft | 395 kts | 283° |
| 2026-05-05 13:20 | 40.87612 | 16.54661 | 36079 ft | 395 kts | 283° |
| 2026-05-05 13:21 | 40.88842 | 16.47586 | 36072 ft | 395 kts | 283° |
| 2026-05-05 13:21 | 40.90070 | 16.40519 | 36073 ft | 395 kts | 283° |
| 2026-05-05 13:22 | 40.91292 | 16.33453 | 36070 ft | 395 kts | 283° |
| 2026-05-05 13:22 | 40.92503 | 16.26375 | 36071 ft | 395 kts | 283° |
| 2026-05-05 13:23 | 40.93719 | 16.19295 | 36076 ft | 395 kts | 283° |
| 2026-05-05 13:23 | 40.94927 | 16.12208 | 36079 ft | 395 kts | 283° |
| 2026-05-05 13:24 | 40.96133 | 16.05117 | 36084 ft | 395 kts | 283° |
| 2026-05-05 13:24 | 40.97345 | 15.98020 | 36073 ft | 395 kts | 283° |
| 2026-05-05 13:25 | 40.98552 | 15.90919 | 36078 ft | 396 kts | 283° |
| 2026-05-05 13:25 | 40.99750 | 15.83804 | 36077 ft | 396 kts | 283° |
| 2026-05-05 13:26 | 41.00948 | 15.76677 | 36081 ft | 397 kts | 283° |
| 2026-05-05 13:26 | 41.02145 | 15.69550 | 36084 ft | 397 kts | 283° |
| 2026-05-05 13:27 | 41.03335 | 15.62414 | 36099 ft | 397 kts | 282° |
| 2026-05-05 13:27 | 41.04523 | 15.55270 | 36100 ft | 397 kts | 282° |
| 2026-05-05 13:28 | 41.05704 | 15.48139 | 36101 ft | 396 kts | 282° |
| 2026-05-05 13:28 | 41.06873 | 15.41058 | 36100 ft | 396 kts | 282° |
| 2026-05-05 13:29 | 41.08048 | 15.33884 | 36102 ft | 396 kts | 281° |
| 2026-05-05 13:29 | 41.09202 | 15.26804 | 36098 ft | 395 kts | 281° |
| 2026-05-05 13:30 | 41.10366 | 15.19687 | 36104 ft | 395 kts | 281° |
| 2026-05-05 13:30 | 41.11518 | 15.12575 | 36104 ft | 394 kts | 281° |
| 2026-05-05 13:31 | 41.12671 | 15.05476 | 36107 ft | 394 kts | 281° |
| 2026-05-05 13:31 | 41.13821 | 14.98384 | 36107 ft | 393 kts | 281° |
| 2026-05-05 13:32 | 41.14961 | 14.91294 | 36107 ft | 393 kts | 280° |
| 2026-05-05 13:32 | 41.16094 | 14.84210 | 36110 ft | 392 kts | 280° |
| 2026-05-05 13:33 | 41.17220 | 14.77135 | 36110 ft | 391 kts | 280° |
| 2026-05-05 13:33 | 41.18336 | 14.70068 | 36111 ft | 391 kts | 280° |
| 2026-05-05 13:34 | 41.19452 | 14.63006 | 36103 ft | 391 kts | 280° |
| 2026-05-05 13:34 | 41.20568 | 14.55943 | 36109 ft | 391 kts | 280° |
| 2026-05-05 13:35 | 41.21677 | 14.48884 | 36115 ft | 391 kts | 280° |
| 2026-05-05 13:35 | 41.22232 | 14.45349 | 35974 ft | 391 kts | 280° |
| 2026-05-05 13:35 | 41.22788 | 14.41818 | 35727 ft | 390 kts | 280° |
| 2026-05-05 13:36 | 41.23342 | 14.38283 | 35482 ft | 391 kts | 279° |
| 2026-05-05 13:36 | 41.23892 | 14.34740 | 35232 ft | 392 kts | 279° |
| 2026-05-05 13:36 | 41.24442 | 14.31197 | 34906 ft | 390 kts | 279° |
| 2026-05-05 13:36 | 41.24987 | 14.27687 | 34469 ft | 386 kts | 279° |
| 2026-05-05 13:37 | 41.25528 | 14.24204 | 34016 ft | 384 kts | 279° |
| 2026-05-05 13:37 | 41.26061 | 14.20750 | 33569 ft | 380 kts | 278° |
| 2026-05-05 13:37 | 41.26586 | 14.17329 | 33144 ft | 375 kts | 278° |
| 2026-05-05 13:37 | 41.27103 | 14.13953 | 32723 ft | 371 kts | 278° |
| 2026-05-05 13:38 | 41.27616 | 14.10614 | 32310 ft | 366 kts | 278° |
| 2026-05-05 13:38 | 41.28121 | 14.07314 | 31900 ft | 362 kts | 278° |
| 2026-05-05 13:38 | 41.28613 | 14.04101 | 31483 ft | 358 kts | 278° |
| 2026-05-05 13:38 | 41.29104 | 14.00879 | 31059 ft | 354 kts | 278° |
| 2026-05-05 13:39 | 41.29786 | 13.97728 | 30601 ft | 356 kts | 287° |
| 2026-05-05 13:39 | 41.30881 | 13.94770 | 30146 ft | 359 kts | 296° |
| 2026-05-05 13:39 | 41.32289 | 13.92015 | 29660 ft | 359 kts | 299° |
| 2026-05-05 13:39 | 41.33706 | 13.89294 | 29214 ft | 356 kts | 299° |
| 2026-05-05 13:40 | 41.35109 | 13.86585 | 28777 ft | 354 kts | 298° |
| 2026-05-05 13:40 | 41.36494 | 13.83893 | 28358 ft | 352 kts | 299° |
| 2026-05-05 13:40 | 41.37871 | 13.81209 | 27927 ft | 350 kts | 300° |
| 2026-05-05 13:40 | 41.39240 | 13.78536 | 27511 ft | 349 kts | 300° |
| 2026-05-05 13:41 | 41.40601 | 13.75873 | 27111 ft | 346 kts | 300° |
| 2026-05-05 13:41 | 41.41954 | 13.73233 | 26707 ft | 344 kts | 300° |
| 2026-05-05 13:41 | 41.43294 | 13.70606 | 26308 ft | 341 kts | 298° |
| 2026-05-05 13:41 | 41.44363 | 13.67836 | 25925 ft | 334 kts | 288° |
| 2026-05-05 13:42 | 41.45014 | 13.64897 | 25559 ft | 328 kts | 278° |
| 2026-05-05 13:42 | 41.45390 | 13.61919 | 25202 ft | 325 kts | 278° |
| 2026-05-05 13:42 | 41.45764 | 13.58959 | 24830 ft | 323 kts | 278° |
| 2026-05-05 13:42 | 41.46139 | 13.56015 | 24470 ft | 322 kts | 278° |
| 2026-05-05 13:43 | 41.46512 | 13.53078 | 24092 ft | 321 kts | 278° |
| 2026-05-05 13:43 | 41.46881 | 13.50149 | 23389 ft | 329 kts | 278° |
| 2026-05-05 13:43 | 41.47259 | 13.47148 | 22948 ft | 327 kts | 279° |
| 2026-05-05 13:43 | 41.47634 | 13.44177 | 22572 ft | 323 kts | 279° |
| 2026-05-05 13:44 | 41.48006 | 13.41236 | 22203 ft | 320 kts | 278° |
| 2026-05-05 13:44 | 41.48374 | 13.38330 | 21827 ft | 316 kts | 278° |
| 2026-05-05 13:44 | 41.48738 | 13.35451 | 21489 ft | 313 kts | 278° |
| 2026-05-05 13:44 | 41.49093 | 13.32604 | 21115 ft | 310 kts | 278° |
| 2026-05-05 13:45 | 41.49443 | 13.29776 | 20752 ft | 307 kts | 278° |
| 2026-05-05 13:45 | 41.49789 | 13.26972 | 20387 ft | 305 kts | 278° |
| 2026-05-05 13:45 | 41.50134 | 13.24186 | 20024 ft | 304 kts | 278° |
| 2026-05-05 13:45 | 41.50477 | 13.21415 | 19661 ft | 302 kts | 278° |
| 2026-05-05 13:46 | 41.50819 | 13.18658 | 19294 ft | 301 kts | 278° |
| 2026-05-05 13:46 | 41.51162 | 13.15900 | 18931 ft | 302 kts | 278° |
| 2026-05-05 13:46 | 41.51505 | 13.13141 | 18570 ft | 301 kts | 278° |
| 2026-05-05 13:46 | 41.51845 | 13.10396 | 18157 ft | 300 kts | 278° |
| 2026-05-05 13:47 | 41.52069 | 13.08579 | 17908 ft | 298 kts | 277° |
| 2026-05-05 13:47 | 41.52402 | 13.05868 | 17545 ft | 295 kts | 277° |
| 2026-05-05 13:47 | 41.52731 | 13.03179 | 17190 ft | 292 kts | 277° |
| 2026-05-05 13:47 | 41.53056 | 13.00507 | 16836 ft | 291 kts | 277° |
| 2026-05-05 13:48 | 41.53378 | 12.97847 | 16480 ft | 289 kts | 277° |
| 2026-05-05 13:48 | 41.53701 | 12.95202 | 16214 ft | 287 kts | 279° |
| 2026-05-05 13:48 | 41.54306 | 12.92623 | 16130 ft | 297 kts | 292° |
| 2026-05-05 13:48 | 41.55410 | 12.90269 | 15879 ft | 303 kts | 307° |
| 2026-05-05 13:49 | 41.56920 | 12.88295 | 15590 ft | 304 kts | 313° |
| 2026-05-05 13:49 | 41.58480 | 12.86380 | 15289 ft | 304 kts | 314° |
| 2026-05-05 13:49 | 41.60024 | 12.84462 | 14996 ft | 302 kts | 313° |
| 2026-05-05 13:49 | 41.61560 | 12.82547 | 14706 ft | 301 kts | 313° |
| 2026-05-05 13:50 | 41.63084 | 12.80637 | 14416 ft | 300 kts | 313° |
| 2026-05-05 13:50 | 41.64603 | 12.78731 | 14113 ft | 299 kts | 313° |
| 2026-05-05 13:50 | 41.66117 | 12.76833 | 13819 ft | 298 kts | 313° |
| 2026-05-05 13:50 | 41.67630 | 12.74935 | 13473 ft | 298 kts | 313° |
| 2026-05-05 13:51 | 41.69140 | 12.73038 | 13203 ft | 298 kts | 313° |
| 2026-05-05 13:51 | 41.70646 | 12.71143 | 12923 ft | 296 kts | 313° |
| 2026-05-05 13:51 | 41.72144 | 12.69263 | 12635 ft | 294 kts | 313° |
| 2026-05-05 13:51 | 41.73635 | 12.67394 | 12348 ft | 293 kts | 313° |
| 2026-05-05 13:52 | 41.75120 | 12.65529 | 12070 ft | 292 kts | 313° |
| 2026-05-05 13:52 | 41.76597 | 12.63671 | 11790 ft | 291 kts | 313° |
| 2026-05-05 13:52 | 41.78067 | 12.61822 | 11511 ft | 290 kts | 313° |
| 2026-05-05 13:52 | 41.79533 | 12.59979 | 11234 ft | 289 kts | 313° |
| 2026-05-05 13:53 | 41.80991 | 12.58134 | 10945 ft | 287 kts | 312° |
| 2026-05-05 13:53 | 41.82412 | 12.56266 | 10674 ft | 286 kts | 311° |
| 2026-05-05 13:53 | 41.83811 | 12.54380 | 10409 ft | 285 kts | 311° |
| 2026-05-05 13:53 | 41.85198 | 12.52488 | 10130 ft | 284 kts | 311° |
| 2026-05-05 13:54 | 41.86576 | 12.50605 | 9858 ft | 281 kts | 311° |
| 2026-05-05 13:54 | 41.87926 | 12.48766 | 9719 ft | 272 kts | 311° |
| 2026-05-05 13:54 | 41.89265 | 12.47029 | 9575 ft | 266 kts | 318° |
| 2026-05-05 13:54 | 41.90851 | 12.45766 | 9442 ft | 266 kts | 334° |
| 2026-05-05 13:55 | 41.92612 | 12.44991 | 9229 ft | 266 kts | 339° |
| 2026-05-05 13:55 | 41.94378 | 12.44266 | 8997 ft | 265 kts | 339° |
| 2026-05-05 13:55 | 41.96140 | 12.43543 | 8751 ft | 264 kts | 339° |
| 2026-05-05 13:55 | 41.97894 | 12.42821 | 8515 ft | 263 kts | 339° |
| 2026-05-05 13:56 | 41.99617 | 12.42108 | 8280 ft | 263 kts | 339° |
| 2026-05-05 13:56 | 42.01384 | 12.41373 | 8041 ft | 262 kts | 339° |
| 2026-05-05 13:56 | 42.03100 | 12.40660 | 7798 ft | 261 kts | 339° |
| 2026-05-05 13:56 | 42.04845 | 12.39935 | 7566 ft | 260 kts | 338° |
| 2026-05-05 13:57 | 42.06571 | 12.39217 | 7331 ft | 260 kts | 338° |
| 2026-05-05 13:57 | 42.08294 | 12.38500 | 7092 ft | 259 kts | 338° |
| 2026-05-05 13:57 | 42.10017 | 12.37782 | 6829 ft | 257 kts | 339° |
| 2026-05-05 13:57 | 42.11681 | 12.37092 | 6640 ft | 251 kts | 338° |
| 2026-05-05 13:58 | 42.13342 | 12.36399 | 6332 ft | 250 kts | 336° |
| 2026-05-05 13:58 | 42.14899 | 12.35402 | 6054 ft | 241 kts | 320° |
| 2026-05-05 13:58 | 42.16121 | 12.33902 | 5795 ft | 236 kts | 303° |
| 2026-05-05 13:58 | 42.16915 | 12.32053 | 5470 ft | 228 kts | 284° |
| 2026-05-05 13:59 | 42.17037 | 12.27957 | 5042 ft | 220 kts | 250° |
| 2026-05-05 13:59 | 42.16567 | 12.25973 | 4824 ft | 222 kts | 249° |
| 2026-05-05 14:00 | 42.15635 | 12.22003 | 4351 ft | 220 kts | 247° |
| 2026-05-05 14:00 | 42.14902 | 12.20224 | 4137 ft | 217 kts | 226° |
| 2026-05-05 14:00 | 42.13721 | 12.18984 | 3926 ft | 218 kts | 205° |
| 2026-05-05 14:00 | 42.12272 | 12.18403 | 3744 ft | 217 kts | 193° |
| 2026-05-05 14:01 | 42.10807 | 12.17974 | 3559 ft | 213 kts | 193° |
| 2026-05-05 14:01 | 42.09364 | 12.17543 | 3345 ft | 212 kts | 193° |
| 2026-05-05 14:01 | 42.07921 | 12.17114 | 3140 ft | 213 kts | 191° |
| 2026-05-05 14:01 | 42.06446 | 12.17044 | 2953 ft | 210 kts | 173° |
| 2026-05-05 14:02 | 42.05043 | 12.17557 | 2907 ft | 210 kts | 164° |
| 2026-05-05 14:02 | 42.03650 | 12.18154 | 2842 ft | 209 kts | 164° |
| 2026-05-05 14:02 | 42.02268 | 12.18742 | 2785 ft | 206 kts | 165° |
| 2026-05-05 14:02 | 42.00936 | 12.19309 | 2706 ft | 197 kts | 165° |
| 2026-05-05 14:03 | 41.99644 | 12.19851 | 2617 ft | 193 kts | 166° |
| 2026-05-05 14:03 | 41.98403 | 12.20363 | 2548 ft | 179 kts | 165° |
| 2026-05-05 14:03 | 41.97232 | 12.20848 | 2492 ft | 174 kts | 165° |
| 2026-05-05 14:03 | 41.96078 | 12.21330 | 2371 ft | 172 kts | 165° |
| 2026-05-05 14:04 | 41.94976 | 12.21794 | 2188 ft | 160 kts | 165° |
| 2026-05-05 14:04 | 41.93952 | 12.22224 | 1989 ft | 150 kts | 165° |
| 2026-05-05 14:04 | 41.92958 | 12.22641 | 1787 ft | 148 kts | 164° |
| 2026-05-05 14:04 | 41.91984 | 12.23050 | 1587 ft | 143 kts | 164° |
| 2026-05-05 14:05 | 41.91056 | 12.23439 | 1401 ft | 139 kts | 165° |
| 2026-05-05 14:05 | 41.90136 | 12.23825 | 1224 ft | 137 kts | 164° |
| 2026-05-05 14:05 | 41.89231 | 12.24205 | 1040 ft | 136 kts | 164° |
| 2026-05-05 14:05 | 41.88324 | 12.24586 | 823 ft | 137 kts | 164° |
| 2026-05-05 14:06 | 41.87393 | 12.24975 | 658 ft | 141 kts | 161° |
| 2026-05-05 14:06 | 41.86460 | 12.25371 | 468 ft | 141 kts | 161° |
| 2026-05-05 14:06 | 41.85535 | 12.25764 | 268 ft | 138 kts | 161° |
| 2026-05-05 14:06 | 41.84625 | 12.26139 | 68 ft | 136 kts | 161° |
| 2026-05-05 14:07 | 41.83784 | 12.26493 | 19 ft | 113 kts | 162° |
| 2026-05-05 14:07 | 41.83193 | 12.26739 | 13 ft | 64 kts | 163° |
| 2026-05-05 14:07 | 41.82877 | 12.26860 | 13 ft | 37 kts | 171° |
| 2026-05-05 14:07 | 41.82677 | 12.26860 | 11 ft | 20 kts | 189° |
| 2026-05-05 14:08 | 41.82542 | 12.26821 | 10 ft | 20 kts | 192° |
| 2026-05-05 14:08 | 41.82406 | 12.26780 | 11 ft | 20 kts | 191° |
| 2026-05-05 14:08 | 41.82274 | 12.26799 | 11 ft | 18 kts | 163° |
| 2026-05-05 14:08 | 41.82177 | 12.26840 | 12 ft | 11 kts | 162° |
| 2026-05-05 14:09 | 41.82098 | 12.26873 | 11 ft | 12 kts | 162° |
| 2026-05-05 14:09 | 41.82011 | 12.26909 | 11 ft | 14 kts | 162° |
| 2026-05-05 14:09 | 41.81917 | 12.26949 | 11 ft | 15 kts | 162° |
| 2026-05-05 14:09 | 41.81817 | 12.26990 | 12 ft | 15 kts | 162° |
| 2026-05-05 14:10 | 41.81713 | 12.27034 | 12 ft | 16 kts | 162° |
| 2026-05-05 14:10 | 41.81600 | 12.27081 | 12 ft | 17 kts | 162° |
| 2026-05-05 14:10 | 41.81482 | 12.27131 | 12 ft | 18 kts | 162° |
| 2026-05-05 14:10 | 41.81358 | 12.27183 | 12 ft | 19 kts | 162° |
| 2026-05-05 14:11 | 41.81240 | 12.27232 | 12 ft | 16 kts | 162° |
| 2026-05-05 14:11 | 41.81140 | 12.27274 | 12 ft | 14 kts | 162° |
| 2026-05-05 14:11 | 41.81058 | 12.27308 | 12 ft | 11 kts | 163° |
| 2026-05-05 14:11 | 41.80993 | 12.27335 | 12 ft | 9 kts | 163° |
| 2026-05-05 14:12 | 41.80939 | 12.27350 | 13 ft | 8 kts | 176° |
| 2026-05-05 14:12 | 41.80879 | 12.27343 | 12 ft | 9 kts | 189° |
| 2026-05-05 14:12 | 41.80812 | 12.27328 | 13 ft | 10 kts | 189° |
| 2026-05-05 14:12 | 41.80740 | 12.27310 | 13 ft | 11 kts | 191° |
| 2026-05-05 14:13 | 41.80671 | 12.27259 | 13 ft | 12 kts | 230° |
| 2026-05-05 14:13 | 41.80640 | 12.27166 | 14 ft | 10 kts | 250° |
| 2026-05-05 14:13 | 41.80620 | 12.27090 | 13 ft | 7 kts | 250° |
| 2026-05-05 14:13 | 41.80604 | 12.27035 | 13 ft | 6 kts | 249° |
| 2026-05-05 14:14 | 41.80588 | 12.26977 | 15 ft | 7 kts | 250° |
| 2026-05-05 14:14 | 41.80568 | 12.26903 | 13 ft | 9 kts | 250° |
| 2026-05-05 14:14 | 41.80544 | 12.26816 | 15 ft | 10 kts | 249° |
| 2026-05-05 14:14 | 41.80517 | 12.26720 | 15 ft | 11 kts | 250° |
| 2026-05-05 14:15 | 41.80489 | 12.26618 | 15 ft | 12 kts | 250° |
| 2026-05-05 14:15 | 41.80458 | 12.26506 | 17 ft | 13 kts | 249° |
| 2026-05-05 14:15 | 41.80429 | 12.26407 | 17 ft | 10 kts | 247° |
| 2026-05-05 14:15 | 41.80378 | 12.26365 | 15 ft | 8 kts | 185° |
| 2026-05-05 14:16 | 41.80328 | 12.26380 | 14 ft | 7 kts | 160° |
| 2026-05-05 14:16 | 41.80283 | 12.26402 | 14 ft | 8 kts | 160° |
| 2026-05-05 14:16 | 41.80220 | 12.26405 | 14 ft | 10 kts | 193° |
| 2026-05-05 14:16 | 41.80159 | 12.26371 | 14 ft | 9 kts | 205° |
| 2026-05-05 14:17 | 41.80105 | 12.26338 | 16 ft | 9 kts | 205° |
| 2026-05-05 14:17 | 41.80048 | 12.26302 | 15 ft | 10 kts | 205° |
| 2026-05-05 14:17 | 41.79983 | 12.26263 | 14 ft | 11 kts | 205° |
| 2026-05-05 14:17 | 41.79913 | 12.26219 | 14 ft | 12 kts | 204° |
| 2026-05-05 14:18 | 41.79837 | 12.26172 | 14 ft | 13 kts | 205° |
| 2026-05-05 14:18 | 41.79759 | 12.26114 | 14 ft | 12 kts | 215° |
| 2026-05-05 14:18 | 41.79693 | 12.26068 | 14 ft | 8 kts | 206° |
| 2026-05-05 14:18 | 41.79691 | 12.26016 | 14 ft | 5 kts | 291° |
| 2026-05-05 14:19 | 41.79701 | 12.25991 | 15 ft | 1 kts | 296° |
| 2026-05-05 14:19 | 41.79701 | 12.25990 | 16 ft | 0 kts | 296° |